Terminal Aerodrome Forecast
Issued by NWS

Current Version | Previous Version | Graphics & Text | Print | Product List | Glossary On
Versions: 1 2 3 4 5 6 7 8 9 10 11 12 13 14 15 16 17 18 19 20
000
FTUS41 KILN 220810 AAA
TAFLUK
TAF AMD
KLUK 220810Z 2208/2306 00000KT 6SM BR FEW150 OVC250
      TEMPO 2208/2212 4SM BR
     FM221400 23005KT P6SM VCTS SCT040CB BKN120
     FM230000 13003KT P6SM SCT250=

USA.gov is the U.S. government's official web portal to all federal, state and local government web resources and services.